map of ULN home
ULN - Airport
Location
City:  Ulan Bator, Ulaanbaatar, Mongolia
Name:Chinggis Khaan International Airport
Old (Alt.):Genghis Khan International, Buyant Ukha Airport
ICAO:ZMUB
IATA:ULN

Details
Type:Airport (Aerodrome, Airfield)
Use:Public/Civil, International (customs port of entry)
Latitude:47°50'35"N (47.843056)
Longitude:106°46'00"E (106.766639)
Elevation:4364 ft (1330 m)
Variation:4.65°W (WMM2015 magnetic declination)
-0.05° annual change
Runways:2
Longest:10170 × 197 ft (3100 × 60 m), paved

Time
Time Zone:UTC+8
Local Time:

Weather
METAR:ZMUB 221700Z VRB01MPS CAVOK M07/M10 Q1012 NOSIG RMK QFE652.1 74
TAF:ZMUB 221640Z 2218/2324 VRB02MPS 9999 SCT033 TNM09/2222Z TX08/2307Z

Related Locations
Nearby:
Farthest:SCRB: 12435 mi / 20012 km
Tortel [Río Bravo Airport], AI, CL

Find:

   beyond  
but within

Other Information
Maps:
NOTAMs:
Links:
Sources:

  
  • flag of Mongolia
  • flag of Ulaanbaatar
  

Sectional Chart

Flight Planning
at skyvector.com

Satellite Image

Google Maps Satellite view

 

Copyright © 2004-2018 Karl L. Swartz. All rights reserved.
The Great Circle Mapper name and logo are trademarks of the Great Circle Mapper.
All other trademarks mentioned herein belong to their respective owners.
Please see credits for attibutions and further copyright information.

  Follow gcmap on Facebook Follow gcmap on Twitter Follow gcmap on Google+ GCmap on LinkedIn

hCard Microformat

Geo Microformat